Time;durP1;ratioP1;P1;durP2;ratioP2;P2;SDS_P1;SDS_P2;PMS_P1;PMS_P2;Temp;Humidity;BMP_temperature;BMP_pressure;BME280_temperature;BME280_humidity;BME280_pressure;Samples;Min_cycle;Max_cycle;Signal;HPM_P1;HPM_P2
2021/10/06 00:26:08;;;;;;;2.07;0.90;;;12.00;99.90;;;;;;5051620;28;20217;-91
2021/10/06 00:28:53;;;;;;;3.27;1.33;;;11.90;99.90;;;;;;5054621;28;20241;-88
2021/10/06 00:31:25;;;;;;;3.97;1.03;;;12.10;99.90;;;;;;5050742;28;20215;-90
2021/10/06 00:33:56;;;;;;;7.03;1.30;;;11.90;99.90;;;;;;5039314;28;20216;-91
2021/10/06 00:39:03;;;;;;;2.50;1.00;;;12.00;99.90;;;;;;5070639;23;20241;-91
2021/10/06 00:41:40;;;;;;;3.63;1.30;;;11.90;99.90;;;;;;5015637;28;20206;-90
2021/10/06 00:44:18;;;;;;;4.97;1.03;;;11.90;99.90;;;;;;5005205;28;20611;-90
2021/10/06 00:46:55;;;;;;;3.00;1.00;;;11.80;99.90;;;;;;5014220;28;20210;-90
2021/10/06 00:49:29;;;;;;;2.70;0.90;;;11.90;99.90;;;;;;4996670;28;20244;-91
2021/10/06 00:52:01;;;;;;;3.00;1.00;;;11.80;99.90;;;;;;4998419;28;20210;-91
2021/10/06 00:54:33;;;;;;;3.30;1.13;;;11.90;99.90;;;;;;5015505;28;20217;-90
2021/10/06 00:57:08;;;;;;;5.77;1.40;;;11.90;99.90;;;;;;5012476;28;20202;-89
2021/10/06 00:59:40;;;;;;;2.83;1.10;;;11.80;99.90;;;;;;5006711;28;20677;-91
2021/10/06 01:02:11;;;;;;;3.97;1.60;;;11.80;99.90;;;;;;5006742;28;20230;-91
2021/10/06 01:04:46;;;;;;;3.97;1.00;;;11.80;99.90;;;;;;5009060;28;20218;-91
2021/10/06 01:07:18;;;;;;;6.07;1.20;;;11.80;99.90;;;;;;5005869;28;20741;-90
2021/10/06 01:09:50;;;;;;;1.83;1.03;;;11.60;99.90;;;;;;5011862;28;20238;-91
2021/10/06 01:12:26;;;;;;;3.50;1.20;;;11.40;99.90;;;;;;5006354;28;20206;-91
2021/10/06 01:14:59;;;;;;;3.40;1.20;;;11.40;99.90;;;;;;5012341;28;20205;-90
2021/10/06 01:17:30;;;;;;;2.63;1.00;;;11.40;99.90;;;;;;5002569;28;20202;-91
2021/10/06 01:20:02;;;;;;;2.03;0.93;;;11.40;99.90;;;;;;4986326;28;20592;-90
2021/10/06 01:22:55;;;;;;;1.43;1.00;;;11.40;99.90;;;;;;5011702;28;20211;-91
2021/10/06 01:25:29;;;;;;;1.60;1.13;;;11.40;99.90;;;;;;5016437;28;20202;-90
2021/10/06 01:33:26;;;;;;;2.83;1.30;;;11.40;99.90;;;;;;5052506;28;20275;-92
2021/10/06 01:35:57;;;;;;;1.97;1.10;;;11.40;99.90;;;;;;5052191;28;20201;-91
2021/10/06 01:38:31;;;;;;;1.17;1.00;;;11.30;99.90;;;;;;5047947;28;20209;-91
2021/10/06 01:41:03;;;;;;;3.27;1.03;;;11.30;99.90;;;;;;5050004;28;20220;-91
2021/10/06 01:43:35;;;;;;;3.60;1.20;;;11.30;99.90;;;;;;5046450;28;20236;-91
2021/10/06 01:49:02;;;;;;;4.00;0.93;;;11.20;99.90;;;;;;5036199;28;20229;-89
2021/10/06 01:51:35;;;;;;;2.80;1.17;;;11.20;99.90;;;;;;5034105;28;20194;-90
2021/10/06 01:54:10;;;;;;;4.93;1.87;;;11.20;99.90;;;;;;5046554;28;20217;-89
2021/10/06 01:56:44;;;;;;;2.63;1.40;;;11.10;99.90;;;;;;5039480;28;20610;-91
2021/10/06 01:59:16;;;;;;;3.47;1.10;;;11.10;99.90;;;;;;5033249;28;20237;-91
2021/10/06 02:01:47;;;;;;;3.97;1.33;;;11.00;99.90;;;;;;5042229;28;20225;-89
2021/10/06 02:04:19;;;;;;;6.27;1.13;;;11.00;99.90;;;;;;5048468;28;20205;-89
2021/10/06 02:06:53;;;;;;;2.73;1.20;;;11.00;99.90;;;;;;5050502;28;20213;-91
2021/10/06 02:09:27;;;;;;;2.53;1.20;;;10.90;99.90;;;;;;5052128;28;20233;-90
2021/10/06 02:12:01;;;;;;;2.83;1.20;;;10.80;99.90;;;;;;5039815;28;20181;-90
2021/10/06 02:14:35;;;;;;;4.13;1.20;;;10.70;99.90;;;;;;5037999;28;20209;-90
2021/10/06 02:17:07;;;;;;;1.93;0.90;;;10.70;99.90;;;;;;5021024;28;20217;-90
2021/10/06 02:19:39;;;;;;;4.23;1.10;;;10.60;99.90;;;;;;5038886;28;20210;-90
2021/10/06 02:22:10;;;;;;;2.73;1.20;;;10.60;99.90;;;;;;5056529;28;20202;-90
2021/10/06 02:24:45;;;;;;;6.30;1.20;;;10.60;99.90;;;;;;5043381;28;20220;-93
2021/10/06 02:27:20;;;;;;;3.87;1.10;;;10.60;99.90;;;;;;5017937;28;20224;-90
2021/10/06 02:32:39;;;;;;;3.57;1.40;;;10.50;99.90;;;;;;5048267;28;20213;-90
2021/10/06 02:35:12;;;;;;;3.80;1.20;;;10.50;99.90;;;;;;5029241;28;20208;-91
2021/10/06 02:37:44;;;;;;;4.30;1.67;;;10.40;99.90;;;;;;5041367;28;20209;-92
2021/10/06 02:40:20;;;;;;;4.53;1.50;;;10.40;99.90;;;;;;5033376;28;20221;-92
2021/10/06 02:42:55;;;;;;;4.97;1.40;;;10.40;99.90;;;;;;5009432;28;20227;-91
2021/10/06 02:53:28;;;;;;;2.73;1.43;;;10.20;99.90;;;;;;5051668;28;20259;-90
2021/10/06 02:56:03;;;;;;;5.77;2.10;;;10.20;99.90;;;;;;5047911;28;20214;-90
2021/10/06 02:58:37;;;;;;;3.87;2.10;;;10.10;99.90;;;;;;5049526;28;20215;-90
2021/10/06 03:01:09;;;;;;;7.43;1.93;;;10.00;99.90;;;;;;5019698;28;20226;-90
2021/10/06 03:06:33;;;;;;;4.77;2.00;;;9.90;99.90;;;;;;5035535;28;20197;-90
2021/10/06 03:09:13;;;;;;;5.63;2.20;;;9.90;99.90;;;;;;5031310;28;20240;-90
2021/10/06 03:11:47;;;;;;;6.63;2.07;;;9.90;99.90;;;;;;5246634;23;20590;-90
2021/10/06 03:14:20;;;;;;;4.17;1.83;;;9.90;99.90;;;;;;4994386;28;20221;-92
2021/10/06 03:16:53;;;;;;;2.97;1.50;;;9.80;99.90;;;;;;4994545;28;20190;-91
2021/10/06 03:19:28;;;;;;;2.37;1.50;;;9.80;99.90;;;;;;5011053;28;20290;-92
2021/10/06 03:22:00;;;;;;;8.40;1.53;;;9.80;99.90;;;;;;5011366;28;20220;-91
2021/10/06 03:24:32;;;;;;;4.07;1.63;;;9.80;99.90;;;;;;5011668;28;20202;-91
2021/10/06 03:27:10;;;;;;;3.43;1.83;;;9.80;99.90;;;;;;5011710;28;20202;-91
2021/10/06 03:29:44;;;;;;;4.87;1.90;;;9.80;99.90;;;;;;5011583;28;20229;-91
2021/10/06 03:35:05;;;;;;;3.43;1.33;;;9.80;99.90;;;;;;5009924;28;20221;-92
2021/10/06 03:37:47;;;;;;;4.60;1.73;;;9.90;99.90;;;;;;5011862;28;20214;-92
2021/10/06 03:40:23;;;;;;;1.80;1.10;;;9.90;99.90;;;;;;5011886;28;20241;-89
2021/10/06 03:42:57;;;;;;;5.00;1.50;;;9.90;99.90;;;;;;5011279;28;20237;-90
2021/10/06 04:23:16;;;;;;;3.03;1.20;;;9.90;99.90;;;;;;5050720;28;20215;-92
2021/10/06 04:25:48;;;;;;;3.90;1.13;;;9.80;99.90;;;;;;5052238;28;20220;-91
2021/10/06 04:28:21;;;;;;;3.67;1.37;;;9.80;99.90;;;;;;5017331;28;20208;-91
2021/10/06 04:30:52;;;;;;;5.83;1.60;;;9.70;99.90;;;;;;5047776;28;20240;-91
2021/10/06 04:33:23;;;;;;;5.70;1.50;;;9.70;99.90;;;;;;5053946;28;20196;-91
2021/10/06 04:35:55;;;;;;;4.90;1.30;;;9.80;99.90;;;;;;5059306;28;20249;-92
2021/10/06 04:38:29;;;;;;;2.87;1.30;;;9.80;99.90;;;;;;5058526;22;20260;-91
2021/10/06 04:41:01;;;;;;;4.47;2.03;;;9.80;99.90;;;;;;5018588;28;20200;-92
2021/10/06 04:43:36;;;;;;;1.90;1.20;;;9.80;99.90;;;;;;5017249;28;20202;-88
2021/10/06 04:46:07;;;;;;;2.97;1.17;;;9.80;99.90;;;;;;5012820;28;20203;-90
2021/10/06 04:48:38;;;;;;;5.43;1.30;;;9.80;99.90;;;;;;5010747;28;20640;-89
2021/10/06 04:51:11;;;;;;;5.00;1.23;;;9.80;99.90;;;;;;4994526;28;20261;-90
2021/10/06 04:53:52;;;;;;;2.50;1.20;;;9.80;99.90;;;;;;5011260;28;20208;-90
2021/10/06 04:56:24;;;;;;;4.67;1.50;;;9.70;99.90;;;;;;5007351;28;20245;-90
2021/10/06 04:58:55;;;;;;;4.97;1.67;;;9.70;99.90;;;;;;4972091;28;20227;-89
2021/10/06 05:01:30;;;;;;;5.43;1.80;;;9.70;99.90;;;;;;4977380;28;20204;-88
2021/10/06 05:04:10;;;;;;;4.90;1.63;;;9.80;99.90;;;;;;4975971;28;20273;-90
2021/10/06 05:06:43;;;;;;;4.37;1.60;;;9.80;99.90;;;;;;4975090;29;20230;-88
2021/10/06 05:09:18;;;;;;;5.67;1.50;;;9.80;99.90;;;;;;4978025;28;20286;-89
2021/10/06 05:11:50;;;;;;;4.37;1.50;;;9.80;99.90;;;;;;5079699;23;20242;-91
2021/10/06 05:14:22;;;;;;;6.37;1.83;;;9.70;99.90;;;;;;5011282;28;20214;-89
2021/10/06 05:16:54;;;;;;;3.57;1.53;;;9.80;99.90;;;;;;5012604;28;20210;-90
2021/10/06 05:22:10;;;;;;;3.87;1.60;;;9.80;99.90;;;;;;5088864;22;20248;-91
2021/10/06 05:24:47;;;;;;;4.63;1.50;;;9.80;99.90;;;;;;4977481;28;20215;-91
2021/10/06 05:27:19;;;;;;;6.70;1.73;;;9.70;99.90;;;;;;4999336;28;20205;-90
2021/10/06 05:29:54;;;;;;;6.03;1.70;;;9.70;99.90;;;;;;4978130;28;20221;-90
2021/10/06 05:32:30;;;;;;;9.27;2.03;;;9.60;99.90;;;;;;5012977;28;20224;-91
2021/10/06 05:35:02;;;;;;;3.77;1.40;;;9.60;99.90;;;;;;5013382;28;20229;-92
2021/10/06 05:37:34;;;;;;;4.77;1.60;;;9.60;99.90;;;;;;5004557;28;20212;-92
2021/10/06 05:40:09;;;;;;;7.13;1.97;;;9.50;99.90;;;;;;5007345;28;20206;-92
2021/10/06 05:42:41;;;;;;;4.57;1.67;;;9.50;99.90;;;;;;5010743;28;20221;-91
2021/10/06 05:45:16;;;;;;;5.03;1.57;;;9.50;99.90;;;;;;5005816;28;20222;-91
2021/10/06 05:47:49;;;;;;;4.03;1.80;;;9.50;99.90;;;;;;5001058;28;20604;-91
2021/10/06 05:50:21;;;;;;;9.00;1.60;;;9.50;99.90;;;;;;5003098;28;20221;-91
2021/10/06 05:52:54;;;;;;;4.27;1.70;;;9.50;99.90;;;;;;5003105;28;20205;-91
2021/10/06 05:55:29;;;;;;;2.73;1.60;;;9.50;99.90;;;;;;5001200;28;20615;-91
2021/10/06 05:58:01;;;;;;;2.47;1.50;;;9.40;99.90;;;;;;5003174;28;20686;-91
2021/10/06 06:00:33;;;;;;;3.97;1.33;;;9.30;99.90;;;;;;5003274;28;20237;-91
2021/10/06 06:03:05;;;;;;;2.77;1.40;;;9.30;99.90;;;;;;4999204;28;20218;-91
2021/10/06 06:05:40;;;;;;;3.97;1.30;;;9.20;99.90;;;;;;5003378;28;20210;-91
2021/10/06 06:08:12;;;;;;;3.50;1.50;;;9.20;99.90;;;;;;5015055;28;20214;-91
2021/10/06 06:10:46;;;;;;;5.80;1.17;;;9.20;99.90;;;;;;5017577;28;20241;-91
2021/10/06 06:13:18;;;;;;;3.43;1.73;;;9.20;99.90;;;;;;5017666;28;20201;-90
2021/10/06 06:15:52;;;;;;;3.93;1.67;;;9.20;99.90;;;;;;5006812;28;20229;-91
2021/10/06 06:18:23;;;;;;;4.77;1.60;;;9.20;99.90;;;;;;4992762;28;20221;-90
2021/10/06 06:26:15;;;;;;;9.30;1.60;;;9.30;99.90;;;;;;5047227;28;20223;-90
2021/10/06 06:28:51;;;;;;;6.47;1.60;;;9.20;99.90;;;;;;5051901;28;20660;-90
2021/10/06 06:31:23;;;;;;;6.33;1.60;;;9.20;99.90;;;;;;5050186;28;20259;-90
2021/10/06 06:33:54;;;;;;;4.47;1.73;;;9.20;99.90;;;;;;5032772;28;20217;-89
2021/10/06 06:36:28;;;;;;;4.23;1.40;;;9.10;99.90;;;;;;5031767;28;20234;-91
2021/10/06 06:39:01;;;;;;;3.37;1.60;;;9.10;99.90;;;;;;5048871;28;20267;-91
2021/10/06 06:41:35;;;;;;;7.47;1.67;;;9.00;99.90;;;;;;5048065;28;20324;-91
2021/10/06 06:44:13;;;;;;;6.00;1.70;;;9.00;99.90;;;;;;5051671;28;20217;-91
2021/10/06 06:46:47;;;;;;;8.90;1.63;;;9.00;99.90;;;;;;5055096;28;20200;-89
2021/10/06 06:49:18;;;;;;;5.10;2.23;;;9.00;99.90;;;;;;5056981;28;20200;-91
2021/10/06 06:51:51;;;;;;;5.67;1.93;;;9.00;99.90;;;;;;5057513;28;20243;-90
2021/10/06 06:54:22;;;;;;;4.93;1.60;;;8.90;99.90;;;;;;5055749;28;20205;-90
2021/10/06 06:56:57;;;;;;;5.50;1.27;;;8.90;99.90;;;;;;5051662;28;20213;-91
2021/10/06 06:59:32;;;;;;;6.63;1.60;;;8.90;99.90;;;;;;5052261;28;20211;-91
2021/10/06 07:02:05;;;;;;;9.60;1.83;;;9.00;99.90;;;;;;5051188;28;20249;-91
2021/10/06 07:09:59;;;;;;;4.63;1.33;;;8.90;99.90;;;;;;5012356;28;20219;-91
2021/10/06 07:12:34;;;;;;;6.30;1.20;;;8.90;99.90;;;;;;4996322;28;20237;-90
2021/10/06 07:15:07;;;;;;;4.23;1.30;;;8.80;99.90;;;;;;5009912;28;20212;-90
2021/10/06 07:17:40;;;;;;;4.37;0.93;;;8.80;99.90;;;;;;5013418;28;20212;-91
2021/10/06 07:20:13;;;;;;;5.33;1.30;;;8.80;99.90;;;;;;5006843;28;20606;-89
2021/10/06 07:22:47;;;;;;;4.47;1.03;;;8.70;99.90;;;;;;5023145;28;20614;-89
2021/10/06 07:25:20;;;;;;;7.17;1.40;;;8.70;99.90;;;;;;5022420;28;20204;-90
2021/10/06 07:27:54;;;;;;;4.30;1.20;;;8.70;99.90;;;;;;5003415;28;20217;-90
2021/10/06 07:30:26;;;;;;;5.87;1.63;;;8.80;99.90;;;;;;5012641;28;20222;-89
2021/10/06 07:32:58;;;;;;;8.37;1.33;;;8.80;99.90;;;;;;5018188;28;20216;-90
2021/10/06 07:35:31;;;;;;;5.50;1.10;;;8.90;99.90;;;;;;5035890;28;20201;-89
2021/10/06 07:38:02;;;;;;;2.97;0.97;;;8.90;99.90;;;;;;5035223;28;20193;-90
2021/10/06 07:40:34;;;;;;;2.90;1.10;;;9.00;99.90;;;;;;5020447;28;20182;-89
2021/10/06 07:43:09;;;;;;;8.50;1.10;;;9.00;99.90;;;;;;5004378;28;20190;-89
2021/10/06 07:45:44;;;;;;;8.13;1.30;;;9.00;99.90;;;;;;5019904;28;20237;-89
2021/10/06 07:48:15;;;;;;;5.00;1.03;;;8.90;99.90;;;;;;5004634;28;20179;-90
2021/10/06 07:50:47;;;;;;;5.97;1.33;;;8.80;99.90;;;;;;5004210;28;20209;-90
2021/10/06 07:53:18;;;;;;;7.93;1.60;;;8.80;99.90;;;;;;5003244;28;20222;-89
2021/10/06 07:55:49;;;;;;;5.83;1.10;;;8.70;99.90;;;;;;5002197;28;20202;-90
2021/10/06 07:58:22;;;;;;;5.33;1.23;;;8.70;99.90;;;;;;5015522;28;20217;-90
2021/10/06 08:00:54;;;;;;;3.57;1.50;;;8.70;99.90;;;;;;5021387;28;20213;-90
2021/10/06 08:03:27;;;;;;;4.23;0.83;;;8.80;99.90;;;;;;5023952;28;20212;-91
2021/10/06 08:06:00;;;;;;;3.67;1.47;;;8.80;99.90;;;;;;5027154;28;20204;-91
2021/10/06 08:08:34;;;;;;;4.67;0.97;;;8.80;99.90;;;;;;5038944;28;20196;-90
2021/10/06 08:11:07;;;;;;;4.83;1.27;;;8.80;99.90;;;;;;5033385;28;20247;-90
2021/10/06 08:13:40;;;;;;;3.57;1.00;;;8.90;99.90;;;;;;5022324;28;20240;-90
2021/10/06 08:16:12;;;;;;;5.03;0.90;;;8.90;99.90;;;;;;5005429;28;20241;-90
2021/10/06 08:18:44;;;;;;;4.43;1.10;;;8.90;99.90;;;;;;5022401;28;20228;-91
2021/10/06 08:21:18;;;;;;;3.87;1.00;;;8.90;99.90;;;;;;5022384;28;20241;-90
2021/10/06 08:23:50;;;;;;;5.03;1.00;;;8.80;99.90;;;;;;5022155;28;20240;-90
2021/10/06 08:26:22;;;;;;;6.57;1.20;;;8.70;99.90;;;;;;5004575;28;20216;-91
2021/10/06 08:28:55;;;;;;;5.93;1.10;;;8.70;99.90;;;;;;5006017;28;20220;-90
2021/10/06 08:31:28;;;;;;;2.83;1.10;;;8.70;99.90;;;;;;5031070;23;20217;-91
2021/10/06 08:34:15;;;;;;;4.50;1.17;;;8.60;99.90;;;;;;4981221;28;20687;-90
2021/10/06 08:36:46;;;;;;;3.80;1.03;;;8.50;99.90;;;;;;4980463;28;20314;-91
2021/10/06 08:39:17;;;;;;;7.97;1.27;;;8.50;99.90;;;;;;4981907;28;20325;-91
2021/10/06 08:41:48;;;;;;;6.23;1.50;;;8.40;99.90;;;;;;4982167;28;20273;-91
2021/10/06 08:44:24;;;;;;;5.83;1.33;;;8.40;99.90;;;;;;4982937;28;20242;-91
2021/10/06 08:46:57;;;;;;;3.37;1.10;;;8.40;99.90;;;;;;4980318;28;20294;-90
2021/10/06 08:49:28;;;;;;;6.50;1.13;;;8.40;99.90;;;;;;4982155;28;20569;-91
2021/10/06 08:52:00;;;;;;;4.53;1.10;;;8.40;99.90;;;;;;4965611;28;20251;-91
2021/10/06 08:54:32;;;;;;;3.40;1.03;;;8.50;99.90;;;;;;4986626;28;20226;-91
2021/10/06 08:57:04;;;;;;;4.77;1.40;;;8.60;99.90;;;;;;4998514;28;20191;-91
2021/10/06 08:59:37;;;;;;;3.20;1.30;;;8.60;99.90;;;;;;4982817;28;20213;-91
2021/10/06 09:02:15;;;;;;;7.60;1.57;;;8.80;99.90;;;;;;4996255;28;20215;-93
2021/10/06 09:04:49;;;;;;;8.90;1.20;;;8.90;99.90;;;;;;4982651;28;20219;-90
2021/10/06 09:07:21;;;;;;;4.23;1.13;;;8.90;99.90;;;;;;4982587;28;20207;-90
2021/10/06 09:09:52;;;;;;;5.80;1.30;;;9.00;99.90;;;;;;4981687;28;20637;-90
2021/10/06 09:12:27;;;;;;;4.80;2.07;;;9.10;99.90;;;;;;4980893;28;20695;-90
2021/10/06 09:15:03;;;;;;;3.27;0.80;;;9.10;99.90;;;;;;4980482;28;20253;-90
2021/10/06 09:17:40;;;;;;;5.63;0.87;;;9.20;99.90;;;;;;4980230;28;20206;-90
2021/10/06 09:20:15;;;;;;;4.77;0.90;;;9.20;99.90;;;;;;4981372;28;20234;-90
2021/10/06 09:23:02;;;;;;;6.20;1.07;;;9.20;99.90;;;;;;4980294;28;20290;-90
2021/10/06 09:25:38;;;;;;;2.90;1.00;;;9.40;99.90;;;;;;4979687;28;20242;-90
2021/10/06 09:28:18;;;;;;;6.63;1.30;;;9.50;99.90;;;;;;4981074;28;20215;-90
2021/10/06 09:30:54;;;;;;;9.33;1.20;;;9.50;99.90;;;;;;4980229;28;20272;-90
2021/10/06 09:33:26;;;;;;;5.20;1.00;;;9.60;99.90;;;;;;4964239;28;20273;-90
2021/10/06 09:36:10;;;;;;;3.23;0.83;;;9.60;99.90;;;;;;4979348;28;20565;-90
2021/10/06 09:38:48;;;;;;;4.93;0.70;;;9.70;99.90;;;;;;4983201;28;20221;-90
2021/10/06 09:41:45;;;;;;;5.00;0.80;;;9.70;99.90;;;;;;4979641;28;20255;-90
2021/10/06 09:44:19;;;;;;;4.57;1.00;;;9.80;99.90;;;;;;4979029;28;20234;-91
2021/10/06 09:47:06;;;;;;;4.40;0.90;;;9.80;99.90;;;;;;4962361;28;20214;-91
2021/10/06 09:49:39;;;;;;;5.23;0.90;;;9.80;99.90;;;;;;4980706;28;20270;-91
2021/10/06 09:52:21;;;;;;;2.57;0.87;;;9.70;99.90;;;;;;4981634;28;20206;-89
2021/10/06 09:54:54;;;;;;;6.90;0.80;;;9.70;99.90;;;;;;4991677;28;20662;-89
2021/10/06 09:57:31;;;;;;;5.87;1.00;;;9.80;99.90;;;;;;4992378;28;20226;-89
2021/10/06 10:00:06;;;;;;;3.80;1.00;;;9.80;99.90;;;;;;4989010;28;20288;-90
2021/10/06 10:02:40;;;;;;;5.67;0.80;;;9.90;99.90;;;;;;4986838;28;20210;-90
2021/10/06 10:07:40;;;;;;;2.87;0.87;;;10.00;99.90;;;;;;4979594;28;20226;-88
2021/10/06 10:10:13;;;;;;;5.87;1.03;;;10.00;99.90;;;;;;4979729;28;20651;-89
2021/10/06 10:12:44;;;;;;;2.43;0.87;;;10.00;99.90;;;;;;4979450;28;20257;-90
2021/10/06 10:15:16;;;;;;;4.57;1.10;;;10.10;99.90;;;;;;4962511;28;20291;-90
2021/10/06 10:17:54;;;;;;;4.13;0.90;;;10.10;99.90;;;;;;4980208;28;20238;-90
2021/10/06 10:20:26;;;;;;;6.20;1.30;;;10.10;99.90;;;;;;4950879;29;20227;-89
2021/10/06 10:23:01;;;;;;;5.33;0.90;;;10.10;99.90;;;;;;4960060;28;20211;-90
2021/10/06 10:25:43;;;;;;;5.27;1.00;;;10.10;99.90;;;;;;4960529;29;20232;-90
2021/10/06 10:28:15;;;;;;;5.13;0.70;;;10.10;99.90;;;;;;4960874;29;20244;-90
2021/10/06 10:31:05;;;;;;;3.97;0.60;;;10.10;99.90;;;;;;4959872;28;20267;-89
2021/10/06 10:33:51;;;;;;;5.23;1.00;;;10.20;99.90;;;;;;4959256;29;20750;-89
2021/10/06 10:36:50;;;;;;;5.00;0.97;;;10.20;99.90;;;;;;4942293;29;20218;-90
2021/10/06 10:40:00;;;;;;;4.37;1.17;;;10.30;99.90;;;;;;4959505;28;20238;-90
2021/10/06 10:43:06;;;;;;;3.90;0.83;;;10.30;99.90;;;;;;4959284;29;20262;-90
2021/10/06 10:45:43;;;;;;;2.27;0.80;;;10.30;99.90;;;;;;4958696;28;20249;-90
2021/10/06 10:48:16;;;;;;;2.87;0.97;;;10.20;99.90;;;;;;4971362;28;20305;-89
2021/10/06 10:51:08;;;;;;;4.03;0.83;;;10.20;99.90;;;;;;4978382;28;20651;-90
2021/10/06 10:53:59;;;;;;;6.07;1.23;;;10.20;99.90;;;;;;4939577;29;20275;-89
2021/10/06 10:56:48;;;;;;;5.07;1.33;;;10.10;99.90;;;;;;4940919;29;20240;-90
2021/10/06 10:59:23;;;;;;;3.40;1.03;;;9.90;99.90;;;;;;4940273;29;20216;-90
2021/10/06 11:02:00;;;;;;;7.03;0.97;;;9.90;99.90;;;;;;4940491;29;20211;-89
2021/10/06 11:04:32;;;;;;;3.87;1.00;;;9.80;99.90;;;;;;4940693;29;20208;-89
2021/10/06 11:07:18;;;;;;;2.97;0.60;;;9.80;99.90;;;;;;4969895;28;20209;-90
2021/10/06 11:09:51;;;;;;;4.93;0.80;;;9.70;99.90;;;;;;4989837;28;20203;-88
2021/10/06 11:12:40;;;;;;;3.17;0.87;;;9.70;99.90;;;;;;4957710;29;20246;-88
2021/10/06 11:15:35;;;;;;;3.17;0.80;;;9.60;99.90;;;;;;4959656;28;20253;-88
2021/10/06 11:18:18;;;;;;;3.10;0.87;;;9.70;99.90;;;;;;4959408;28;20212;-88
2021/10/06 11:20:56;;;;;;;2.93;0.90;;;9.60;99.90;;;;;;4959713;29;20289;-89
2021/10/06 11:23:44;;;;;;;3.63;0.80;;;9.60;99.90;;;;;;4959530;28;20239;-89
2021/10/06 11:26:17;;;;;;;5.67;1.00;;;9.50;99.90;;;;;;4959471;29;20278;-88
2021/10/06 11:28:51;;;;;;;4.80;0.80;;;9.50;99.90;;;;;;4960952;28;20219;-89
2021/10/06 11:31:25;;;;;;;7.07;1.30;;;9.50;99.90;;;;;;4961600;29;20644;-89
2021/10/06 11:33:56;;;;;;;3.13;1.00;;;9.50;99.90;;;;;;4960557;29;20242;-88
2021/10/06 11:36:30;;;;;;;7.13;0.90;;;9.50;99.90;;;;;;4961025;29;20212;-89
2021/10/06 11:39:06;;;;;;;3.90;0.70;;;9.50;99.90;;;;;;4963106;29;20224;-90
2021/10/06 11:41:43;;;;;;;3.10;0.90;;;9.50;99.90;;;;;;4962883;29;20210;-89
2021/10/06 11:44:18;;;;;;;4.53;0.97;;;9.50;99.90;;;;;;4963011;29;20648;-90
2021/10/06 11:46:58;;;;;;;3.20;0.70;;;9.50;99.90;;;;;;4976050;28;20228;-90
2021/10/06 11:49:31;;;;;;;3.40;0.63;;;9.50;99.90;;;;;;4976615;28;20215;-89
2021/10/06 11:52:02;;;;;;;5.57;0.97;;;9.50;99.90;;;;;;4977323;28;20211;-89
2021/10/06 11:54:37;;;;;;;7.90;0.80;;;9.50;99.90;;;;;;4954200;28;20228;-89
2021/10/06 11:57:13;;;;;;;2.20;0.80;;;9.50;99.90;;;;;;4942628;29;20214;-87
2021/10/06 11:59:45;;;;;;;6.10;0.90;;;9.50;99.90;;;;;;4941455;29;20210;-89
2021/10/06 12:02:17;;;;;;;1.17;0.70;;;9.40;99.90;;;;;;4939622;29;20306;-89
2021/10/06 12:04:49;;;;;;;4.47;0.73;;;9.40;99.90;;;;;;4938060;29;20287;-89
2021/10/06 12:07:23;;;;;;;1.27;0.60;;;9.40;99.90;;;;;;4941890;28;20274;-90
2021/10/06 12:10:01;;;;;;;3.67;0.80;;;9.30;99.90;;;;;;4946757;29;20216;-90
2021/10/06 12:12:36;;;;;;;6.27;0.63;;;9.30;99.90;;;;;;4958275;29;20208;-90
2021/10/06 12:15:10;;;;;;;3.73;0.70;;;9.30;99.90;;;;;;4957043;29;20281;-90
2021/10/06 12:17:43;;;;;;;5.57;0.83;;;9.30;99.90;;;;;;4959803;29;20237;-89
2021/10/06 12:20:16;;;;;;;4.27;0.70;;;9.30;99.90;;;;;;4943990;29;20267;-90
2021/10/06 12:22:49;;;;;;;1.77;0.47;;;9.30;99.90;;;;;;4962839;28;20218;-88
2021/10/06 12:25:23;;;;;;;2.53;0.80;;;9.30;99.90;;;;;;4960525;29;20389;-89
2021/10/06 12:27:59;;;;;;;3.87;0.70;;;9.30;99.90;;;;;;4962700;29;20227;-88
2021/10/06 12:30:31;;;;;;;2.77;0.60;;;9.40;99.90;;;;;;4961185;29;20206;-89
2021/10/06 12:33:05;;;;;;;4.33;0.80;;;9.40;99.90;;;;;;4960860;28;20239;-89
2021/10/06 12:35:42;;;;;;;1.80;0.60;;;9.50;99.90;;;;;;4959979;28;20241;-89
2021/10/06 12:38:13;;;;;;;4.67;0.97;;;9.50;99.90;;;;;;4960799;29;20213;-90
2021/10/06 12:40:50;;;;;;;3.23;0.90;;;9.60;99.90;;;;;;4961372;29;20216;-90
2021/10/06 12:43:27;;;;;;;2.47;0.70;;;9.60;99.90;;;;;;4961170;29;20309;-90
2021/10/06 12:46:03;;;;;;;3.70;0.70;;;9.60;99.90;;;;;;4960845;29;20700;-89
2021/10/06 12:48:38;;;;;;;1.57;0.73;;;9.60;99.90;;;;;;4961652;29;20217;-89
2021/10/06 12:51:10;;;;;;;3.00;0.70;;;9.60;99.90;;;;;;4961866;28;20215;-89
2021/10/06 12:53:55;;;;;;;3.13;1.13;;;9.50;99.90;;;;;;4961313;29;20600;-89
2021/10/06 12:56:42;;;;;;;1.70;0.60;;;9.60;99.90;;;;;;4959988;28;20235;-90
2021/10/06 12:59:15;;;;;;;1.40;0.50;;;9.60;99.90;;;;;;4961052;29;20261;-89
2021/10/06 13:01:47;;;;;;;2.53;0.60;;;9.60;99.90;;;;;;4944461;29;20212;-89
2021/10/06 13:04:20;;;;;;;3.97;0.73;;;9.60;99.90;;;;;;4967681;29;20664;-88
2021/10/06 13:06:52;;;;;;;4.40;0.70;;;9.60;99.90;;;;;;4975263;28;20227;-88
2021/10/06 13:09:24;;;;;;;3.33;0.70;;;9.60;99.90;;;;;;4963470;29;20204;-89
2021/10/06 13:11:58;;;;;;;2.83;0.70;;;9.60;99.90;;;;;;4960966;29;20320;-89
2021/10/06 13:14:29;;;;;;;2.07;0.93;;;9.50;99.90;;;;;;4961009;29;20234;-89
2021/10/06 13:17:00;;;;;;;5.30;0.90;;;9.50;99.90;;;;;;4973937;28;20212;-90
2021/10/06 13:19:32;;;;;;;4.07;0.67;;;9.40;99.90;;;;;;4979171;28;20257;-88
2021/10/06 13:22:03;;;;;;;2.50;0.60;;;9.40;99.90;;;;;;4973422;28;20207;-89
2021/10/06 13:24:34;;;;;;;3.50;0.60;;;9.30;99.90;;;;;;4954681;29;20200;-88
2021/10/06 13:27:10;;;;;;;10.50;0.60;;;9.30;99.90;;;;;;4947723;29;20691;-90
2021/10/06 13:29:43;;;;;;;3.87;1.10;;;9.30;99.90;;;;;;4940878;29;20279;-90
2021/10/06 13:32:15;;;;;;;4.50;1.00;;;9.30;99.90;;;;;;4941020;29;20223;-91
2021/10/06 13:34:46;;;;;;;1.90;0.57;;;9.30;99.90;;;;;;4939693;29;20782;-89
2021/10/06 13:37:17;;;;;;;6.23;1.20;;;9.30;99.90;;;;;;4941793;29;20208;-88
2021/10/06 13:39:48;;;;;;;6.17;1.00;;;9.30;99.90;;;;;;4941446;29;20580;-90
2021/10/06 13:42:21;;;;;;;2.40;0.80;;;9.30;99.90;;;;;;4941148;29;20700;-89
2021/10/06 13:44:53;;;;;;;2.87;0.80;;;9.30;99.90;;;;;;4943257;28;20251;-90
2021/10/06 13:47:24;;;;;;;2.23;0.67;;;9.30;99.90;;;;;;4961035;29;20289;-90
2021/10/06 13:49:55;;;;;;;2.53;1.00;;;9.20;99.90;;;;;;4959896;29;20216;-90
2021/10/06 13:52:26;;;;;;;1.43;0.60;;;9.20;99.90;;;;;;4959799;29;20217;-90
2021/10/06 13:54:58;;;;;;;5.73;0.90;;;9.20;99.90;;;;;;4958621;28;20270;-90
2021/10/06 13:57:32;;;;;;;4.17;0.60;;;9.20;99.90;;;;;;4959417;28;20277;-90
2021/10/06 14:00:03;;;;;;;5.47;1.50;;;9.10;99.90;;;;;;4952953;29;20215;-91
2021/10/06 14:02:36;;;;;;;3.00;0.90;;;9.10;99.90;;;;;;4963685;29;20238;-88
2021/10/06 14:05:09;;;;;;;2.80;0.60;;;9.10;99.90;;;;;;4941492;29;20585;-89
2021/10/06 14:07:41;;;;;;;1.47;0.70;;;9.00;99.90;;;;;;4616591;28;10000502;-89
2021/10/06 14:10:12;;;;;;;3.83;0.70;;;9.00;99.90;;;;;;4958568;28;20290;-90
2021/10/06 14:12:46;;;;;;;2.13;0.77;;;9.00;99.90;;;;;;4942488;28;20208;-90
2021/10/06 14:15:18;;;;;;;0.90;0.63;;;9.00;99.90;;;;;;4957231;29;20235;-90
2021/10/06 14:17:53;;;;;;;2.67;0.70;;;9.00;99.90;;;;;;4969684;29;20252;-90
2021/10/06 14:20:25;;;;;;;4.90;0.67;;;9.00;99.90;;;;;;4971126;29;20226;-90
2021/10/06 14:22:56;;;;;;;4.33;0.73;;;9.00;99.90;;;;;;4971587;28;20196;-90
2021/10/06 14:25:29;;;;;;;6.37;0.80;;;8.90;99.90;;;;;;4954787;29;20201;-90
2021/10/06 14:28:03;;;;;;;5.50;0.77;;;8.90;99.90;;;;;;4949846;29;20241;-90
2021/10/06 14:30:35;;;;;;;2.53;0.60;;;8.90;99.90;;;;;;4964853;29;20294;-90
2021/10/06 14:33:08;;;;;;;4.90;0.70;;;9.00;99.90;;;;;;4971400;29;20208;-91
2021/10/06 14:35:41;;;;;;;0.93;0.70;;;9.00;99.90;;;;;;4969080;29;20233;-90
2021/10/06 14:38:13;;;;;;;4.00;0.70;;;9.00;99.90;;;;;;4965818;29;20264;-90
2021/10/06 14:40:45;;;;;;;3.37;0.80;;;9.00;99.90;;;;;;4945566;29;20210;-89
2021/10/06 14:43:19;;;;;;;2.83;0.67;;;9.00;99.90;;;;;;4949777;29;20219;-89
2021/10/06 14:45:53;;;;;;;3.40;0.70;;;9.00;99.90;;;;;;4967826;29;20203;-89
2021/10/06 14:48:24;;;;;;;3.53;0.80;;;8.90;99.90;;;;;;4929161;29;20215;-88
2021/10/06 14:51:04;;;;;;;1.67;0.90;;;9.00;99.90;;;;;;4971704;29;20211;-90
2021/10/06 14:53:35;;;;;;;3.40;0.67;;;9.00;99.90;;;;;;4974745;29;20215;-89
2021/10/06 14:56:14;;;;;;;1.50;0.80;;;8.90;99.90;;;;;;4976086;28;20220;-88
2021/10/06 14:58:50;;;;;;;1.13;0.70;;;8.90;99.90;;;;;;4971892;29;20211;-89
2021/10/06 15:01:23;;;;;;;3.67;0.80;;;8.90;99.90;;;;;;4963088;29;20211;-89
2021/10/06 15:03:54;;;;;;;1.93;0.90;;;8.90;99.90;;;;;;4958855;29;20216;-89
2021/10/06 15:06:27;;;;;;;1.70;0.60;;;8.90;99.90;;;;;;4965784;29;20213;-89
2021/10/06 15:09:01;;;;;;;2.70;0.83;;;8.90;99.90;;;;;;4971474;28;20223;-89
2021/10/06 15:11:32;;;;;;;4.90;0.80;;;8.90;99.90;;;;;;4970662;29;20217;-89
2021/10/06 15:14:07;;;;;;;1.43;0.77;;;8.80;99.90;;;;;;4971242;29;20256;-89
2021/10/06 15:16:38;;;;;;;1.90;1.00;;;8.90;99.90;;;;;;4968984;29;20290;-90
2021/10/06 15:19:11;;;;;;;4.03;0.93;;;8.80;99.90;;;;;;4970456;28;20302;-90